
Python Developer
| Date Time MST |
Temp °F |
RH % |
DewPt °F |
Wind mph |
Dir ° |
Gust mph |
Dir ° |
Press in Hg |
Solar W/m^2 |
Prec in |
|---|---|---|---|---|---|---|---|---|---|---|
| 2026-05-02 12:45 | 68.9 | 12.9 | 15.9 | 6.5 | 95 | 11.1 | 80 | 24.933 | 876.0 | 0.00 |
| 2026-05-02 12:40 | 68.3 | 12.6 | 14.9 | 8.6 | 110 | 12.9 | 68 | 24.935 | 880.0 | 0.00 |
| 2026-05-02 12:35 | 68.9 | 12.2 | 14.7 | 6.4 | 63 | 13.4 | 59 | 24.935 | 882.0 | 0.00 |
| 2026-05-02 12:30 | 68.9 | 13.0 | 16.1 | 7.9 | 97 | 13.3 | 118 | 24.933 | 883.0 | 0.00 |
| 2026-05-02 12:25 | 67.4 | 13.3 | 15.3 | 6.7 | 158 | 12.3 | 98 | 24.934 | 886.0 | 0.00 |
| 2026-05-02 12:20 | 67.1 | 12.7 | 14.0 | 8.3 | 66 | 11.6 | 83 | 24.939 | 887.0 | 0.00 |
| 2026-05-02 12:15 | 67.8 | 13.4 | 15.9 | 6.4 | 92 | 11.8 | 83 | 24.944 | 889.0 | 0.00 |
| 2026-05-02 12:10 | 66.8 | 13.8 | 15.7 | 2.2 | 230 | 5.8 | 125 | 24.950 | 890.0 | 0.00 |
| 2026-05-02 12:05 | 66.7 | 13.1 | 14.4 | 5.9 | 161 | 10.7 | 160 | 24.944 | 892.0 | 0.00 |
| 2026-05-02 12:00 | 67.8 | 12.5 | 14.2 | 5.3 | 157 | 9.6 | 152 | 24.948 | 892.0 | 0.00 |
| 2026-05-02 11:55 | 67.6 | 13.6 | 16.0 | 5.0 | 116 | 8.9 | 47 | 24.949 | 890.0 | 0.00 |
| 2026-05-02 11:50 | 66.6 | 14.5 | 16.7 | 5.3 | 69 | 9.7 | 69 | 24.945 | 890.0 | 0.00 |
| 2026-05-02 11:45 | 66.3 | 14.0 | 15.7 | 4.7 | 155 | 8.1 | 155 | 24.948 | 890.0 | 0.00 |
| 2026-05-02 11:40 | 65.8 | 13.5 | 14.5 | 4.0 | 15 | 8.8 | 101 | 24.962 | 888.0 | 0.00 |
| 2026-05-02 11:35 | 65.8 | 13.7 | 14.7 | 6.6 | 114 | 9.5 | 128 | 24.967 | 886.0 | 0.00 |
| 2026-05-02 11:30 | 65.7 | 13.3 | 14.1 | 3.8 | 129 | 8.6 | 133 | 24.971 | 886.0 | 0.00 |
| 2026-05-02 11:25 | 64.7 | 14.0 | 14.5 | 5.5 | 311 | 9.5 | 141 | 24.977 | 884.0 | 0.00 |
| 2026-05-02 11:20 | 64.9 | 13.6 | 13.9 | 4.8 | 142 | 8.2 | 154 | 24.979 | 880.0 | 0.00 |
| 2026-05-02 11:15 | 65.0 | 14.0 | 14.6 | 3.4 | 103 | 7.5 | 81 | 24.981 | 876.0 | 0.00 |
| 2026-05-02 11:10 | 65.4 | 13.8 | 14.5 | 6.7 | 124 | 9.6 | 133 | 24.980 | 872.0 | 0.00 |
| 2026-05-02 11:05 | 64.7 | 14.8 | 15.7 | 6.8 | 129 | 9.3 | 162 | 24.976 | 870.0 | 0.00 |
| 2026-05-02 11:00 | 65.6 | 14.1 | 15.4 | 4.4 | 156 | 11.0 | 152 | 24.978 | 866.0 | 0.00 |
| 2026-05-02 10:55 | 64.8 | 14.3 | 15.0 | 4.5 | 171 | 7.8 | 164 | 24.973 | 861.0 | 0.00 |
| 2026-05-02 10:50 | 64.2 | 14.4 | 14.6 | 5.1 | 264 | 7.2 | 307 | 24.967 | 855.0 | 0.00 |
| 2026-05-02 10:45 | 63.8 | 15.2 | 15.5 | 3.3 | 293 | 7.8 | 278 | 24.975 | 850.0 | 0.00 |
| 2026-05-02 10:40 | 63.8 | 15.6 | 16.1 | 2.1 | 309 | 4.3 | 299 | 24.974 | 845.0 | 0.00 |
| 2026-05-02 10:35 | 63.9 | 14.5 | 14.5 | 2.9 | 110 | 5.9 | 118 | 24.975 | 840.0 | 0.00 |
| 2026-05-02 10:30 | 63.2 | 16.7 | 17.2 | 3.7 | 358 | 7.8 | 65 | 24.976 | 832.0 | 0.00 |
| 2026-05-02 10:25 | 63.7 | 15.0 | 15.2 | 5.9 | 72 | 9.7 | 82 | 24.975 | 826.0 | 0.00 |
| 2026-05-02 10:20 | 63.2 | 16.5 | 17.0 | 3.7 | 28 | 7.9 | 0 | 24.983 | 819.0 | 0.00 |
| Date Time MST |
Temp °C |
RH % |
DewPt °C |
Wind m/s |
Dir ° |
Gust m/s |
Dir ° |
Press hPa |
Solar W/m^2 |
Prec mm |
|---|---|---|---|---|---|---|---|---|---|---|
| 2026-05-02 12:45 | 20.5 | 12.9 | -8.9 | 2.9 | 95 | 5.0 | 80 | 844.34 | 876.0 | 0.00 |
| 2026-05-02 12:40 | 20.2 | 12.6 | -9.5 | 3.8 | 110 | 5.8 | 68 | 844.40 | 880.0 | 0.00 |
| 2026-05-02 12:35 | 20.5 | 12.2 | -9.6 | 2.9 | 63 | 6.0 | 59 | 844.41 | 882.0 | 0.00 |
| 2026-05-02 12:30 | 20.5 | 13.0 | -8.8 | 3.5 | 97 | 5.9 | 118 | 844.34 | 883.0 | 0.00 |
| 2026-05-02 12:25 | 19.6 | 13.3 | -9.3 | 3.0 | 158 | 5.5 | 98 | 844.38 | 886.0 | 0.00 |
| 2026-05-02 12:20 | 19.5 | 12.7 | -10.0 | 3.7 | 66 | 5.2 | 83 | 844.53 | 887.0 | 0.00 |
| 2026-05-02 12:15 | 19.9 | 13.4 | -8.9 | 2.9 | 92 | 5.3 | 83 | 844.69 | 889.0 | 0.00 |
| 2026-05-02 12:10 | 19.4 | 13.8 | -9.0 | 1.0 | 230 | 2.6 | 125 | 844.90 | 890.0 | 0.00 |
| 2026-05-02 12:05 | 19.3 | 13.1 | -9.8 | 2.6 | 161 | 4.8 | 160 | 844.69 | 892.0 | 0.00 |
| 2026-05-02 12:00 | 19.9 | 12.5 | -9.9 | 2.3 | 157 | 4.3 | 152 | 844.85 | 892.0 | 0.00 |
| 2026-05-02 11:55 | 19.8 | 13.6 | -8.9 | 2.2 | 116 | 4.0 | 47 | 844.87 | 890.0 | 0.00 |
| 2026-05-02 11:50 | 19.2 | 14.5 | -8.5 | 2.4 | 69 | 4.4 | 69 | 844.72 | 890.0 | 0.00 |
| 2026-05-02 11:45 | 19.1 | 14.0 | -9.1 | 2.1 | 155 | 3.6 | 155 | 844.83 | 890.0 | 0.00 |
| 2026-05-02 11:40 | 18.8 | 13.5 | -9.7 | 1.8 | 15 | 3.9 | 101 | 845.32 | 888.0 | 0.00 |
| 2026-05-02 11:35 | 18.8 | 13.7 | -9.6 | 2.9 | 114 | 4.3 | 128 | 845.50 | 886.0 | 0.00 |
| 2026-05-02 11:30 | 18.7 | 13.3 | -10.0 | 1.7 | 129 | 3.9 | 133 | 845.62 | 886.0 | 0.00 |
| 2026-05-02 11:25 | 18.2 | 14.0 | -9.7 | 2.5 | 311 | 4.3 | 141 | 845.82 | 884.0 | 0.00 |
| 2026-05-02 11:20 | 18.3 | 13.6 | -10.0 | 2.1 | 142 | 3.6 | 154 | 845.89 | 880.0 | 0.00 |
| 2026-05-02 11:15 | 18.4 | 14.0 | -9.7 | 1.5 | 103 | 3.4 | 81 | 845.95 | 876.0 | 0.00 |
| 2026-05-02 11:10 | 18.5 | 13.8 | -9.7 | 3.0 | 124 | 4.3 | 133 | 845.92 | 872.0 | 0.00 |
| 2026-05-02 11:05 | 18.2 | 14.8 | -9.1 | 3.1 | 129 | 4.1 | 162 | 845.80 | 870.0 | 0.00 |
| 2026-05-02 11:00 | 18.7 | 14.1 | -9.2 | 2.0 | 156 | 4.9 | 152 | 845.87 | 866.0 | 0.00 |
| 2026-05-02 10:55 | 18.2 | 14.3 | -9.5 | 2.0 | 171 | 3.5 | 164 | 845.67 | 861.0 | 0.00 |
| 2026-05-02 10:50 | 17.9 | 14.4 | -9.7 | 2.3 | 264 | 3.2 | 307 | 845.47 | 855.0 | 0.00 |
| 2026-05-02 10:45 | 17.7 | 15.2 | -9.2 | 1.5 | 293 | 3.5 | 278 | 845.76 | 850.0 | 0.00 |
| 2026-05-02 10:40 | 17.7 | 15.6 | -8.8 | 0.9 | 309 | 1.9 | 299 | 845.70 | 845.0 | 0.00 |
| 2026-05-02 10:35 | 17.7 | 14.5 | -9.7 | 1.3 | 110 | 2.6 | 118 | 845.76 | 840.0 | 0.00 |
| 2026-05-02 10:30 | 17.3 | 16.7 | -8.2 | 1.7 | 358 | 3.5 | 65 | 845.78 | 832.0 | 0.00 |
| 2026-05-02 10:25 | 17.6 | 15.0 | -9.3 | 2.6 | 72 | 4.4 | 82 | 845.75 | 826.0 | 0.00 |
| 2026-05-02 10:20 | 17.4 | 16.5 | -8.3 | 1.7 | 28 | 3.5 | 0 | 846.01 | 819.0 | 0.00 |

Python Developer
Cooperative Institute for Research in the Atmosphere
Colorado State University
1375 Campus Delivery
Fort Collins, CO 80523-1375